world map with OBN marked

OBN - Airport

This information may not be accurate or current and is not valid for navigation or flight planning. No warranty of fitness for any purpose is made or implied.

flag of Scotlandflag of United Kingdom

Donate via PayPal

Additional information is available on the NEW Great Circle Mapper

Location
City:  Oban, Argyll, Scotland, United Kingdom
Near (Alt.):North Connell
Name:Oban Airfield
ICAO / IATA:EGEO / OBN

Details
Type:Airport (Aerodrome, Airfield)
Latitude:56°27'49"N (56.463500)
Longitude:5°23'59"W (-5.399666)
Datum:WGS 1984
Elevation:20 ft (6 m)
Runways:2
Longest:4068 × 98 ft (1240 × 30 m)

Time
Timezone:UTC+0 (DST+3)
Local Time:

Weather
METAR:EGEO  041420Z 29013KT 9999 FEW020 07/03 Q1013

Related Locations
Nearby:
Farthest:SZS: 11714 mi / 18852 km
Ryan's Creek, Stewart Island, STL, NZ

Find:

   beyond  
but within

Other Information
Maps:
Links:
Sources:

  


 


Great Circle Mapper   Great Circle Mapper
Great Circle Mapper FAQ   Great Circle Mapper FAQ
  Karl's Home Page
KLSē   KLSē Home
   GC on Facebook
Airlines of the World   Airlines of the World
Donate via PayPal


Copyright © 2004-2019, Karl L. Swartz. All rights reserved.
All trademarks mentioned herein belong to their respective owners.

Please see credits for attribution and copyright information.

Karl Swartz <karl@kls2.com>
  Powered by FreeBSD
Valid HTML 4.01!
Labeled with ICRA
hCard Microformat
Geo Microformat